createdAt,value
2018-12-18T00:00:31.562Z,6.36
2018-12-18T00:03:39.486Z,6.24
2018-12-18T00:06:46.408Z,6.16
2018-12-18T00:09:51.331Z,6.23
2018-12-18T00:12:56.026Z,6.05
2018-12-18T00:16:00.763Z,6.00
2018-12-18T00:19:05.536Z,5.90
2018-12-18T00:22:10.245Z,5.86
2018-12-18T00:25:15.149Z,5.84
2018-12-18T00:28:19.882Z,5.81
2018-12-18T00:31:24.640Z,5.58
2018-12-18T00:34:29.366Z,5.63
2018-12-18T00:37:34.096Z,5.61
2018-12-18T00:40:38.815Z,5.63
2018-12-18T00:43:43.557Z,5.54
2018-12-18T00:46:48.305Z,5.53
2018-12-18T00:49:53.078Z,5.64
2018-12-18T00:52:57.785Z,5.59
2018-12-18T00:56:02.574Z,5.55
2018-12-18T00:59:07.283Z,5.32
2018-12-18T01:02:12.008Z,5.57
2018-12-18T01:05:18.149Z,5.66
2018-12-18T01:08:22.970Z,5.32
2018-12-18T01:11:27.681Z,5.54
2018-12-18T01:14:32.409Z,5.48
2018-12-18T01:17:37.180Z,5.63
2018-12-18T01:20:41.959Z,5.72
2018-12-18T01:23:46.674Z,5.85
2018-12-18T01:26:51.411Z,5.90
2018-12-18T01:29:56.172Z,5.71
2018-12-18T01:33:00.930Z,5.48
2018-12-18T01:36:05.663Z,5.64
2018-12-18T01:39:10.404Z,5.51
2018-12-18T01:42:15.122Z,5.45
2018-12-18T01:45:19.822Z,5.54
2018-12-18T01:48:24.528Z,5.80
2018-12-18T01:51:29.249Z,5.49
2018-12-18T01:54:33.989Z,5.41
2018-12-18T01:57:38.792Z,5.43
2018-12-18T02:00:43.515Z,5.17
2018-12-18T02:03:48.397Z,5.36
2018-12-18T02:06:53.144Z,5.37
2018-12-18T02:09:57.894Z,5.49
2018-12-18T02:13:02.741Z,5.51
2018-12-18T02:16:09.560Z,5.52
2018-12-18T02:19:14.286Z,5.57
2018-12-18T02:22:19.033Z,5.47
2018-12-18T02:25:23.784Z,5.60
2018-12-18T02:28:28.518Z,5.25
2018-12-18T02:31:33.311Z,5.54
2018-12-18T02:34:38.007Z,5.40
2018-12-18T02:37:42.722Z,5.48
2018-12-18T02:40:47.469Z,5.54
2018-12-18T02:43:52.169Z,5.56
2018-12-18T02:46:57.159Z,5.64
2018-12-18T02:50:01.918Z,5.46
2018-12-18T02:53:06.674Z,5.50
2018-12-18T02:56:11.391Z,5.46
2018-12-18T02:59:16.121Z,5.34
2018-12-18T03:02:20.841Z,5.55
2018-12-18T03:05:25.563Z,5.67
2018-12-18T03:08:31.171Z,5.44
2018-12-18T03:11:35.988Z,5.76
2018-12-18T03:14:40.763Z,5.63
2018-12-18T03:17:45.541Z,5.64
2018-12-18T03:20:50.633Z,5.55
2018-12-18T03:23:55.458Z,5.48
2018-12-18T03:27:00.181Z,5.54
2018-12-18T03:30:05.375Z,5.41
2018-12-18T03:33:10.108Z,5.02
2018-12-18T03:36:14.821Z,5.60
2018-12-18T03:39:19.571Z,5.35
2018-12-18T03:42:24.300Z,5.36
2018-12-18T03:45:29.102Z,5.26
2018-12-18T03:48:33.793Z,5.07
2018-12-18T03:51:38.490Z,5.09
2018-12-18T03:54:43.230Z,4.62
2018-12-18T03:57:47.967Z,4.52
2018-12-18T04:00:52.681Z,4.83
2018-12-18T04:03:57.427Z,5.10
2018-12-18T04:07:02.130Z,5.03
2018-12-18T04:10:07.421Z,5.26
2018-12-18T04:13:12.286Z,5.40
2018-12-18T04:16:17.016Z,5.08
2018-12-18T04:19:21.771Z,4.99
2018-12-18T04:22:26.479Z,5.21
2018-12-18T04:25:31.215Z,4.72
2018-12-18T04:28:35.909Z,4.69
2018-12-18T04:31:40.652Z,5.01
2018-12-18T04:34:45.375Z,5.03
2018-12-18T04:37:50.128Z,4.83
2018-12-18T04:40:54.888Z,4.85
2018-12-18T04:43:59.664Z,4.95
2018-12-18T04:47:04.418Z,4.99
2018-12-18T04:50:09.227Z,4.86
2018-12-18T04:53:14.090Z,4.81
2018-12-18T04:56:18.851Z,4.97
2018-12-18T04:59:23.632Z,5.02
2018-12-18T05:02:28.399Z,5.25
2018-12-18T05:05:33.142Z,5.14
2018-12-18T05:08:37.903Z,4.83
2018-12-18T05:11:42.642Z,5.10
2018-12-18T05:14:47.402Z,5.24
2018-12-18T05:17:52.301Z,4.91
2018-12-18T05:20:57.249Z,4.94
2018-12-18T05:24:02.045Z,5.05
2018-12-18T05:27:06.785Z,4.86
2018-12-18T05:30:11.693Z,4.82
2018-12-18T05:33:16.448Z,4.73
2018-12-18T05:36:21.183Z,4.68
2018-12-18T05:39:26.061Z,4.62
2018-12-18T05:42:30.790Z,4.46
2018-12-18T05:45:35.513Z,4.72
2018-12-18T05:48:40.226Z,4.75
2018-12-18T05:51:44.986Z,4.56
2018-12-18T05:54:49.737Z,4.48
2018-12-18T05:57:54.478Z,4.75
2018-12-18T06:00:59.267Z,4.71
2018-12-18T06:04:03.986Z,4.76
2018-12-18T06:07:08.794Z,4.98
2018-12-18T06:10:13.508Z,4.82
2018-12-18T06:13:18.279Z,4.79
2018-12-18T06:16:23.018Z,4.61
2018-12-18T06:19:27.748Z,5.03
2018-12-18T06:22:32.467Z,4.80
2018-12-18T06:25:37.216Z,4.59
2018-12-18T06:28:42.016Z,4.43
2018-12-18T06:31:46.737Z,4.36
2018-12-18T06:34:51.575Z,4.42
2018-12-18T06:37:56.278Z,4.75
2018-12-18T06:41:01.013Z,4.54
2018-12-18T06:44:05.791Z,4.73
2018-12-18T06:47:10.551Z,4.40
2018-12-18T06:50:15.301Z,4.44
2018-12-18T06:53:20.060Z,4.33
2018-12-18T06:56:24.836Z,4.49
2018-12-18T06:59:29.755Z,4.60
2018-12-18T07:02:34.495Z,4.61
2018-12-18T07:05:39.274Z,4.38
2018-12-18T07:08:44.036Z,4.24
2018-12-18T07:11:48.808Z,4.67
2018-12-18T07:14:53.561Z,4.39
2018-12-18T07:17:58.304Z,4.28
2018-12-18T07:21:03.037Z,4.21
2018-12-18T07:24:13.853Z,4.29
2018-12-18T07:27:14.945Z,4.51
2018-12-18T07:30:19.930Z,4.04
2018-12-18T07:33:25.602Z,4.35
2018-12-18T07:36:30.375Z,4.40
2018-12-18T07:39:35.147Z,4.71
2018-12-18T07:42:39.961Z,4.58
2018-12-18T07:45:44.701Z,4.49
2018-12-18T07:48:49.445Z,4.41
2018-12-18T07:51:54.171Z,4.50
2018-12-18T07:54:59.029Z,4.71
2018-12-18T07:58:03.780Z,4.78
2018-12-18T08:01:08.569Z,4.55
2018-12-18T08:04:13.319Z,4.49
2018-12-18T08:07:18.046Z,4.39
2018-12-18T08:10:22.785Z,4.51
2018-12-18T08:13:27.513Z,4.34
2018-12-18T08:16:32.261Z,4.68
2018-12-18T08:19:39.754Z,4.73
2018-12-18T08:22:44.483Z,5.01
2018-12-18T08:25:49.179Z,5.02
2018-12-18T08:28:53.914Z,4.96
2018-12-18T08:31:58.617Z,5.06
2018-12-18T08:35:03.383Z,4.90
2018-12-18T08:38:08.100Z,4.53
2018-12-18T08:41:12.853Z,4.69
2018-12-18T08:44:17.824Z,4.97
2018-12-18T08:47:22.602Z,4.93
2018-12-18T08:50:27.353Z,5.03
2018-12-18T08:53:32.129Z,5.10
2018-12-18T08:56:36.929Z,5.04
2018-12-18T08:59:41.663Z,5.28
2018-12-18T09:02:46.497Z,5.21
2018-12-18T09:05:51.222Z,5.08
2018-12-18T09:08:56.094Z,5.16
2018-12-18T09:12:00.900Z,5.28
2018-12-18T09:15:11.910Z,5.15
2018-12-18T09:18:16.680Z,5.36
2018-12-18T09:21:21.367Z,4.92
2018-12-18T09:24:26.113Z,4.95
2018-12-18T09:27:30.798Z,5.33
2018-12-18T09:30:35.691Z,5.10
2018-12-18T09:33:42.269Z,5.17
2018-12-18T09:36:47.001Z,5.17
2018-12-18T09:39:51.914Z,5.13
2018-12-18T09:43:01.803Z,5.15
2018-12-18T09:46:06.686Z,5.27
2018-12-18T09:49:11.406Z,5.31
2018-12-18T09:52:16.129Z,5.09
2018-12-18T09:55:21.013Z,5.25
2018-12-18T09:58:25.895Z,5.40
2018-12-18T10:01:30.692Z,5.67
2018-12-18T10:04:35.443Z,5.65
2018-12-18T10:07:40.144Z,5.47
2018-12-18T10:10:44.893Z,5.43
2018-12-18T10:13:49.789Z,5.74
2018-12-18T10:16:54.549Z,5.58
2018-12-18T10:19:59.276Z,5.82
2018-12-18T10:23:04.070Z,6.08
2018-12-18T10:26:08.790Z,5.77
2018-12-18T10:29:13.540Z,5.42
2018-12-18T10:32:18.282Z,5.40
2018-12-18T10:35:23.015Z,5.47
2018-12-18T10:38:28.211Z,5.47
2018-12-18T10:41:32.985Z,5.81
2018-12-18T10:44:37.771Z,5.58
2018-12-18T10:47:42.537Z,5.24
2018-12-18T10:50:47.256Z,5.36
2018-12-18T10:53:51.989Z,5.49
2018-12-18T10:56:56.930Z,5.33
2018-12-18T11:00:01.720Z,5.48
2018-12-18T11:03:08.299Z,5.49
2018-12-18T11:06:13.071Z,5.54
2018-12-18T11:09:18.139Z,5.32
2018-12-18T11:12:27.786Z,5.42
2018-12-18T11:15:32.539Z,5.64
2018-12-18T11:18:37.347Z,5.55
2018-12-18T11:21:42.117Z,5.72
2018-12-18T11:24:46.843Z,5.89
2018-12-18T11:27:51.641Z,6.03
2018-12-18T11:30:56.349Z,5.68
2018-12-18T11:34:01.081Z,5.67
2018-12-18T11:37:05.884Z,5.70
2018-12-18T11:40:10.968Z,5.91
2018-12-18T11:43:15.806Z,5.74
2018-12-18T11:46:20.548Z,5.68
2018-12-18T11:49:26.219Z,5.70
2018-12-18T11:52:30.970Z,5.42
2018-12-18T11:55:35.851Z,5.56
2018-12-18T11:58:40.700Z,5.88
2018-12-18T12:01:45.473Z,5.93
2018-12-18T12:04:50.253Z,5.88
2018-12-18T12:07:55.050Z,5.83
2018-12-18T12:10:59.808Z,5.70
2018-12-18T12:14:04.611Z,5.70
2018-12-18T12:17:09.393Z,5.48
2018-12-18T12:20:14.135Z,5.80
2018-12-18T12:23:19.057Z,5.82
2018-12-18T12:26:28.965Z,5.64
2018-12-18T12:29:33.731Z,5.66
2018-12-18T12:32:38.690Z,5.68
2018-12-18T12:35:43.924Z,5.61
2018-12-18T12:38:48.676Z,5.60
2018-12-18T12:41:53.517Z,5.62
2018-12-18T12:44:58.262Z,5.50
2018-12-18T12:48:07.053Z,5.48
2018-12-18T12:51:11.782Z,5.66
2018-12-18T12:54:16.554Z,5.84
2018-12-18T12:57:21.339Z,5.96
2018-12-18T13:00:26.126Z,5.88
2018-12-18T13:03:30.888Z,5.70
2018-12-18T13:06:36.565Z,5.72
2018-12-18T13:09:41.634Z,5.62
2018-12-18T13:12:46.446Z,5.44
2018-12-18T13:15:51.524Z,5.89
2018-12-18T13:18:56.305Z,5.60
2018-12-18T13:22:01.088Z,5.68
2018-12-18T13:25:06.868Z,5.83
2018-12-18T13:28:11.669Z,5.82
2018-12-18T13:31:16.511Z,5.74
2018-12-18T13:34:21.373Z,5.56
2018-12-18T13:37:26.209Z,5.55
2018-12-18T13:40:32.304Z,5.56
2018-12-18T13:43:37.308Z,5.59
2018-12-18T13:46:42.114Z,5.42
2018-12-18T13:49:46.886Z,5.36
2018-12-18T13:52:51.659Z,5.35
2018-12-18T13:55:56.443Z,5.54
2018-12-18T13:59:01.210Z,5.71
2018-12-18T14:02:06.029Z,5.70
2018-12-18T14:05:10.857Z,5.67
2018-12-18T14:08:15.681Z,5.64
2018-12-18T14:11:20.529Z,5.48
2018-12-18T14:14:25.298Z,5.54
2018-12-18T14:17:30.279Z,5.59
2018-12-18T14:20:35.102Z,5.86
2018-12-18T14:23:39.853Z,5.71
2018-12-18T14:26:44.620Z,5.69
2018-12-18T14:29:49.486Z,5.58
2018-12-18T14:32:54.284Z,5.71
2018-12-18T14:35:59.069Z,5.58
2018-12-18T14:39:05.867Z,5.39
2018-12-18T14:42:12.686Z,5.56
2018-12-18T14:45:18.546Z,5.41
2018-12-18T14:48:23.452Z,5.50
2018-12-18T14:51:28.223Z,5.42
2018-12-18T14:54:33.012Z,5.48
2018-12-18T14:57:37.942Z,5.50
2018-12-18T15:00:42.711Z,5.58
2018-12-18T15:03:47.474Z,5.59
2018-12-18T15:06:52.234Z,5.50
2018-12-18T15:09:57.014Z,5.39
2018-12-18T15:13:01.827Z,5.72
2018-12-18T15:16:06.669Z,5.48
2018-12-18T15:19:11.569Z,5.75
2018-12-18T15:22:16.353Z,5.62
2018-12-18T15:25:21.119Z,5.50
2018-12-18T15:28:27.008Z,5.67
2018-12-18T15:31:31.803Z,5.91
2018-12-18T15:34:36.613Z,5.94
2018-12-18T15:37:41.672Z,5.77
2018-12-18T15:40:46.541Z,5.95
2018-12-18T15:43:51.319Z,5.71
2018-12-18T15:46:56.097Z,5.95
2018-12-18T15:50:00.955Z,5.92
2018-12-18T15:53:05.853Z,5.85
2018-12-18T15:56:10.619Z,5.96
2018-12-18T15:59:15.362Z,6.05
2018-12-18T16:02:24.217Z,5.91
2018-12-18T16:05:26.985Z,5.89
2018-12-18T16:08:31.769Z,5.65
2018-12-18T16:11:36.711Z,5.49
2018-12-18T16:14:41.484Z,5.83
2018-12-18T16:17:46.246Z,5.73
2018-12-18T16:20:51.000Z,5.54
2018-12-18T16:23:55.760Z,5.59
2018-12-18T16:27:00.522Z,5.63
2018-12-18T16:30:05.887Z,5.77
2018-12-18T16:33:10.703Z,5.75
2018-12-18T16:36:15.502Z,5.92
2018-12-18T16:39:20.325Z,5.51
2018-12-18T16:42:25.094Z,5.78
2018-12-18T16:45:29.861Z,5.60
2018-12-18T16:48:34.658Z,5.65
2018-12-18T16:51:39.402Z,5.42
2018-12-18T16:54:44.263Z,5.77
2018-12-18T16:57:49.058Z,5.61
2018-12-18T17:00:53.808Z,5.63
2018-12-18T17:03:58.698Z,5.41
2018-12-18T17:07:03.465Z,5.22
2018-12-18T17:10:08.430Z,5.21
2018-12-18T17:13:13.252Z,5.39
2018-12-18T17:16:18.096Z,5.73
2018-12-18T17:19:22.854Z,5.63
2018-12-18T17:22:27.630Z,5.64
2018-12-18T17:25:33.586Z,5.32
2018-12-18T17:28:38.372Z,5.63
2018-12-18T17:31:43.201Z,5.41
2018-12-18T17:34:47.990Z,5.42
2018-12-18T17:37:52.755Z,5.72
2018-12-18T17:40:57.789Z,5.59
2018-12-18T17:44:02.619Z,5.77
2018-12-18T17:47:07.408Z,5.78
2018-12-18T17:50:12.185Z,5.44
2018-12-18T17:53:17.093Z,5.52
2018-12-18T17:56:22.025Z,5.79
2018-12-18T17:59:26.898Z,5.84
2018-12-18T18:02:31.703Z,5.93
2018-12-18T18:05:36.469Z,5.90
2018-12-18T18:08:41.306Z,5.54
2018-12-18T18:11:46.117Z,5.77
2018-12-18T18:14:50.938Z,5.52
2018-12-18T18:17:55.779Z,5.53
2018-12-18T18:21:00.587Z,5.53
2018-12-18T18:24:05.406Z,5.71
2018-12-18T18:27:10.216Z,5.37
2018-12-18T18:30:15.055Z,5.37
2018-12-18T18:33:19.872Z,5.68
2018-12-18T18:36:24.632Z,5.71
2018-12-18T18:39:29.408Z,5.59
2018-12-18T18:42:34.150Z,5.70
2018-12-18T18:45:38.921Z,5.59
2018-12-18T18:48:44.854Z,5.48
2018-12-18T18:51:49.661Z,5.49
2018-12-18T18:54:54.276Z,5.60
2018-12-18T18:57:59.161Z,5.65
2018-12-18T19:01:04.043Z,5.79
2018-12-18T19:04:08.785Z,5.76
2018-12-18T19:07:13.441Z,5.82
2018-12-18T19:10:18.081Z,5.60
2018-12-18T19:13:22.601Z,5.73
2018-12-18T19:16:28.274Z,5.83
2018-12-18T19:19:32.991Z,5.79
2018-12-18T19:22:37.630Z,5.92
2018-12-18T19:25:42.323Z,5.97
2018-12-18T19:28:50.238Z,5.77
2018-12-18T19:31:53.598Z,5.93
2018-12-18T19:34:58.251Z,5.54
2018-12-18T19:38:03.307Z,5.54
2018-12-18T19:41:08.316Z,5.78
2018-12-18T19:44:12.897Z,5.82
2018-12-18T19:47:17.502Z,5.90
2018-12-18T19:50:22.076Z,5.83
2018-12-18T19:53:26.626Z,5.81
2018-12-18T19:56:31.338Z,5.78
2018-12-18T19:59:36.017Z,5.91
2018-12-18T20:02:40.686Z,5.70
2018-12-18T20:05:45.453Z,5.56
2018-12-18T20:08:51.171Z,5.64
2018-12-18T20:11:55.953Z,5.66
2018-12-18T20:15:01.308Z,5.65
2018-12-18T20:18:08.481Z,5.70
2018-12-18T20:21:13.371Z,5.67
2018-12-18T20:24:17.903Z,5.35
2018-12-18T20:27:22.527Z,5.52
2018-12-18T20:30:27.222Z,5.32
2018-12-18T20:33:32.095Z,5.51
2018-12-18T20:36:37.001Z,5.57
2018-12-18T20:39:41.586Z,5.69
2018-12-18T20:42:46.503Z,5.15
2018-12-18T20:45:51.092Z,5.29
2018-12-18T20:48:55.727Z,5.44
2018-12-18T20:52:00.372Z,5.69
2018-12-18T20:55:05.230Z,5.33
2018-12-18T20:58:09.853Z,5.08
2018-12-18T21:01:14.474Z,5.24
2018-12-18T21:04:19.155Z,5.28
2018-12-18T21:07:23.905Z,5.25
2018-12-18T21:10:28.542Z,5.34
2018-12-18T21:13:33.202Z,5.28
2018-12-18T21:16:37.937Z,5.21
2018-12-18T21:19:42.464Z,5.20
2018-12-18T21:22:47.218Z,5.08
2018-12-18T21:25:51.949Z,4.84
2018-12-18T21:28:56.659Z,5.24
2018-12-18T21:32:01.297Z,5.27
2018-12-18T21:35:06.810Z,5.36
2018-12-18T21:38:11.478Z,5.28
2018-12-18T21:41:16.085Z,5.22
2018-12-18T21:44:20.606Z,5.33
2018-12-18T21:47:25.207Z,5.04
2018-12-18T21:50:29.807Z,5.16
2018-12-18T21:53:34.451Z,5.01
2018-12-18T21:56:39.016Z,5.04
2018-12-18T21:59:43.742Z,5.05
2018-12-18T22:02:48.365Z,5.11
2018-12-18T22:05:53.042Z,5.12
2018-12-18T22:08:57.664Z,5.07
2018-12-18T22:12:02.264Z,4.95
2018-12-18T22:15:07.623Z,4.68
2018-12-18T22:18:12.205Z,5.09
2018-12-18T22:21:16.802Z,5.24
2018-12-18T22:24:21.410Z,5.08
2018-12-18T22:27:26.077Z,4.90
2018-12-18T22:30:30.873Z,4.67
2018-12-18T22:33:35.360Z,4.91
2018-12-18T22:36:39.946Z,5.11
2018-12-18T22:39:44.505Z,4.84
2018-12-18T22:42:49.194Z,5.02
2018-12-18T22:45:53.826Z,4.83
2018-12-18T22:48:58.428Z,4.99
2018-12-18T22:52:03.081Z,4.82
2018-12-18T22:55:07.828Z,4.72
2018-12-18T22:58:12.504Z,4.61
2018-12-18T23:01:21.199Z,4.54
2018-12-18T23:04:26.132Z,4.52
2018-12-18T23:07:30.709Z,4.50
2018-12-18T23:10:37.434Z,4.19
2018-12-18T23:13:42.118Z,4.45
2018-12-18T23:16:46.940Z,4.41
2018-12-18T23:19:51.535Z,4.25
2018-12-18T23:22:56.233Z,4.21
2018-12-18T23:26:00.909Z,4.36
2018-12-18T23:29:05.638Z,4.36
2018-12-18T23:32:10.131Z,4.17
2018-12-18T23:35:14.859Z,4.26
2018-12-18T23:38:19.604Z,4.36
2018-12-18T23:41:24.257Z,4.50
2018-12-18T23:44:28.849Z,4.61
2018-12-18T23:47:33.438Z,4.41
2018-12-18T23:50:38.018Z,4.54
2018-12-18T23:53:42.570Z,4.52
2018-12-18T23:56:47.210Z,4.62
2018-12-18T23:59:51.839Z,4.62
